createdAt,value
2023-01-08T00:01:53.248Z,99942.50
2023-01-08T00:04:22.543Z,99959.44
2023-01-08T00:06:51.742Z,99952.31
2023-01-08T00:09:20.945Z,99958.63
2023-01-08T00:11:50.757Z,99953.25
2023-01-08T00:14:21.368Z,99956.09
2023-01-08T00:16:52.056Z,99933.78
2023-01-08T00:19:20.967Z,99946.31
2023-01-08T00:21:50.968Z,99932.25
2023-01-08T00:24:19.428Z,99940.88
2023-01-08T00:26:47.867Z,99940.63
2023-01-08T00:29:16.530Z,99928.38
2023-01-08T00:31:46.918Z,99933.47
2023-01-08T00:34:15.564Z,99938.25
2023-01-08T00:36:44.026Z,99931.34
2023-01-08T00:39:12.492Z,99919.44
2023-01-08T00:41:44.416Z,99915.84
2023-01-08T00:44:13.100Z,99931.34
2023-01-08T00:46:42.151Z,99929.09
2023-01-08T00:49:11.999Z,99919.88
2023-01-08T00:51:40.477Z,99910.47
2023-01-08T00:54:09.042Z,99906.75
2023-01-08T00:56:37.524Z,99909.25
2023-01-08T00:59:06.463Z,99917.69
2023-01-08T01:01:38.145Z,99910.38
2023-01-08T01:04:06.976Z,99916.47
2023-01-08T01:06:36.942Z,99921.81
2023-01-08T01:09:05.557Z,99922.66
2023-01-08T01:11:34.056Z,99924.06
2023-01-08T01:14:02.866Z,99919.03
2023-01-08T01:16:31.409Z,99928.94
2023-01-08T01:18:59.907Z,99922.38
2023-01-08T01:21:30.837Z,99921.94
2023-01-08T01:24:02.988Z,99918.59
2023-01-08T01:26:32.007Z,99900.94
2023-01-08T01:29:01.102Z,99917.38
2023-01-08T01:31:32.001Z,99913.81
2023-01-08T01:34:00.793Z,99914.84
2023-01-08T01:36:31.963Z,99905.91
2023-01-08T01:39:02.023Z,99883.75
2023-01-08T01:41:32.877Z,99894.94
2023-01-08T01:44:22.209Z,99895.25
2023-01-08T01:46:51.522Z,99890.25
2023-01-08T01:49:23.976Z,99893.00
2023-01-08T01:51:55.744Z,99896.78
2023-01-08T01:54:27.874Z,99898.69
2023-01-08T01:56:57.134Z,99904.84
2023-01-08T01:59:25.692Z,99895.13
2023-01-08T02:01:55.093Z,99880.06
2023-01-08T02:04:23.744Z,99869.75
2023-01-08T02:07:04.556Z,99877.19
2023-01-08T02:09:44.076Z,99888.88
2023-01-08T02:12:18.206Z,99883.34
2023-01-08T02:15:04.480Z,99875.28
2023-01-08T02:17:41.042Z,99879.06
2023-01-08T02:20:13.549Z,99885.75
2023-01-08T02:23:10.008Z,99879.56
2023-01-08T02:26:05.893Z,99881.97
2023-01-08T02:28:39.437Z,99867.75
2023-01-08T02:31:08.955Z,99863.38
2023-01-08T02:33:37.690Z,99869.13
2023-01-08T02:36:33.957Z,99866.94
2023-01-08T02:39:14.881Z,99853.31
2023-01-08T02:41:56.765Z,99852.81
2023-01-08T02:44:33.484Z,99847.59
2023-01-08T02:47:05.322Z,99862.13
2023-01-08T02:49:37.728Z,99860.84
2023-01-08T02:52:08.520Z,99854.47
2023-01-08T02:54:38.198Z,99850.56
2023-01-08T02:57:12.498Z,99838.22
2023-01-08T02:59:42.412Z,99835.59
2023-01-08T03:02:12.348Z,99852.25
2023-01-08T03:04:44.962Z,99876.06
2023-01-08T03:07:13.572Z,99883.91
2023-01-08T03:09:42.595Z,99870.84
2023-01-08T03:12:18.635Z,99863.72
2023-01-08T03:14:52.409Z,99868.72
2023-01-08T03:17:25.278Z,99859.06
2023-01-08T03:19:57.758Z,99869.75
2023-01-08T03:22:26.387Z,99869.88
2023-01-08T03:24:56.234Z,99868.94
2023-01-08T03:27:30.226Z,99856.81
2023-01-08T03:30:00.669Z,99864.31
2023-01-08T03:32:31.883Z,99865.25
2023-01-08T03:35:02.529Z,99860.88
2023-01-08T03:37:36.982Z,99860.16
2023-01-08T03:40:09.570Z,99861.09
2023-01-08T03:42:39.591Z,99856.53
2023-01-08T03:45:09.178Z,99858.56
2023-01-08T03:47:39.626Z,99859.56
2023-01-08T03:50:12.492Z,99860.66
2023-01-08T03:52:40.981Z,99830.81
2023-01-08T03:55:10.161Z,99826.31
2023-01-08T03:57:40.036Z,99823.22
2023-01-08T04:00:09.473Z,99813.09
2023-01-08T04:02:37.987Z,99809.75
2023-01-08T04:05:07.213Z,99808.69
2023-01-08T04:07:35.677Z,99779.88
2023-01-08T04:10:04.237Z,99788.84
2023-01-08T04:12:32.666Z,99780.50
2023-01-08T04:15:02.597Z,99790.72
2023-01-08T04:17:31.175Z,99801.06
2023-01-08T04:19:59.660Z,99790.28
2023-01-08T04:22:28.096Z,99779.38
2023-01-08T04:24:56.735Z,99782.81
2023-01-08T04:27:25.269Z,99777.81
2023-01-08T04:29:53.915Z,99807.81
2023-01-08T04:32:23.791Z,99801.75
2023-01-08T04:34:52.413Z,99797.34
2023-01-08T04:37:20.921Z,99804.16
2023-01-08T04:39:49.418Z,99803.19
2023-01-08T04:42:18.009Z,99808.44
2023-01-08T04:44:46.563Z,99807.72
2023-01-08T04:47:15.107Z,99792.97
2023-01-08T04:49:44.919Z,99792.75
2023-01-08T04:52:13.456Z,99782.06
2023-01-08T04:54:41.945Z,99778.09
2023-01-08T04:57:10.443Z,99784.53
2023-01-08T04:59:38.942Z,99777.78
2023-01-08T05:02:07.588Z,99778.81
2023-01-08T05:04:36.313Z,99783.72
2023-01-08T05:07:08.167Z,99755.50
2023-01-08T05:09:36.605Z,99771.59
2023-01-08T05:12:05.454Z,99770.25
2023-01-08T05:14:34.087Z,99753.38
2023-01-08T05:17:02.625Z,99754.47
2023-01-08T05:19:31.108Z,99761.72
2023-01-08T05:21:59.558Z,99758.78
2023-01-08T05:24:29.531Z,99756.50
2023-01-08T05:26:58.211Z,99750.06
2023-01-08T05:29:26.687Z,99745.66
2023-01-08T05:31:55.143Z,99734.94
2023-01-08T05:34:23.667Z,99745.72
2023-01-08T05:36:52.152Z,99732.78
2023-01-08T05:39:21.458Z,99744.44
2023-01-08T05:41:51.398Z,99736.16
2023-01-08T05:44:20.064Z,99735.56
2023-01-08T05:46:48.858Z,99742.47
2023-01-08T05:49:17.348Z,99729.91
2023-01-08T05:51:45.947Z,99715.59
2023-01-08T05:54:14.375Z,99740.13
2023-01-08T05:56:44.167Z,99739.09
2023-01-08T05:59:14.693Z,99732.19
2023-01-08T06:01:43.256Z,99735.84
2023-01-08T06:04:11.916Z,99726.34
2023-01-08T06:06:40.567Z,99726.06
2023-01-08T06:09:09.465Z,99710.25
2023-01-08T06:11:37.879Z,99721.78
2023-01-08T06:14:06.427Z,99722.63
2023-01-08T06:16:36.328Z,99725.25
2023-01-08T06:19:04.835Z,99723.69
2023-01-08T06:21:33.261Z,99722.91
2023-01-08T06:24:01.888Z,99713.91
2023-01-08T06:26:30.375Z,99717.69
2023-01-08T06:28:58.978Z,99697.22
2023-01-08T06:31:27.452Z,99696.28
2023-01-08T06:33:57.483Z,99693.94
2023-01-08T06:36:25.955Z,99686.75
2023-01-08T06:38:56.035Z,99707.72
2023-01-08T06:41:24.619Z,99699.88
2023-01-08T06:43:53.170Z,99708.84
2023-01-08T06:46:21.686Z,99700.84
2023-01-08T06:48:50.352Z,99691.84
2023-01-08T06:51:20.560Z,99691.84
2023-01-08T06:53:49.679Z,99694.59
2023-01-08T06:56:18.218Z,99688.16
2023-01-08T06:58:46.841Z,99676.31
2023-01-08T07:01:17.128Z,99691.31
2023-01-08T07:03:46.085Z,99682.75
2023-01-08T07:06:17.535Z,99694.78
2023-01-08T07:08:48.070Z,99701.31
2023-01-08T07:11:17.607Z,99703.84
2023-01-08T07:13:46.070Z,99707.03
2023-01-08T07:16:16.076Z,99703.69
2023-01-08T07:18:45.176Z,99707.88
2023-01-08T07:21:13.657Z,99700.38
2023-01-08T07:23:42.248Z,99699.41
2023-01-08T07:26:12.075Z,99707.25
2023-01-08T07:28:40.543Z,99689.19
2023-01-08T07:31:09.209Z,99679.69
2023-01-08T07:33:38.145Z,99698.16
2023-01-08T07:36:07.535Z,99698.38
2023-01-08T07:38:36.126Z,99695.84
2023-01-08T07:41:04.828Z,99688.72
2023-01-08T07:43:35.581Z,99696.47
2023-01-08T07:46:04.869Z,99693.00
2023-01-08T07:48:33.460Z,99688.63
2023-01-08T07:51:06.657Z,99685.88
2023-01-08T07:53:35.474Z,99670.31
2023-01-08T07:56:04.958Z,99679.47
2023-01-08T07:58:35.181Z,99686.16
2023-01-08T08:01:03.941Z,99671.31
2023-01-08T08:03:32.502Z,99657.03
2023-01-08T08:06:01.904Z,99662.38
2023-01-08T08:08:30.356Z,99643.25
2023-01-08T08:10:58.747Z,99641.34
2023-01-08T08:13:27.420Z,99644.78
2023-01-08T08:15:57.420Z,99648.16
2023-01-08T08:18:26.085Z,99640.31
2023-01-08T08:20:54.554Z,99652.19
2023-01-08T08:23:23.123Z,99641.50
2023-01-08T08:25:52.328Z,99628.19
2023-01-08T08:28:20.953Z,99624.47
2023-01-08T08:30:50.407Z,99645.81
2023-01-08T08:33:20.561Z,99635.81
2023-01-08T08:35:51.416Z,99619.97
2023-01-08T08:38:20.410Z,99632.84
2023-01-08T08:40:50.010Z,99628.53
2023-01-08T08:43:18.451Z,99614.88
2023-01-08T08:45:46.975Z,99614.16
2023-01-08T08:48:16.955Z,99616.25
2023-01-08T08:50:46.937Z,99591.72
2023-01-08T08:53:15.450Z,99617.78
2023-01-08T08:55:43.876Z,99617.16
2023-01-08T08:58:14.015Z,99623.44
2023-01-08T09:00:43.930Z,99603.44
2023-01-08T09:03:15.177Z,99609.34
2023-01-08T09:05:44.368Z,99622.66
2023-01-08T09:08:14.636Z,99622.88
2023-01-08T09:10:43.882Z,99608.41
2023-01-08T09:13:12.594Z,99623.75
2023-01-08T09:15:41.351Z,99629.91
2023-01-08T09:18:09.850Z,99629.88
2023-01-08T09:20:38.506Z,99610.59
2023-01-08T09:23:07.338Z,99624.75
2023-01-08T09:25:37.274Z,99632.28
2023-01-08T09:28:08.178Z,99634.78
2023-01-08T09:30:36.986Z,99621.66
2023-01-08T09:33:06.284Z,99640.78
2023-01-08T09:35:35.017Z,99639.88
2023-01-08T09:38:03.621Z,99635.59
2023-01-08T09:40:36.963Z,99636.97
2023-01-08T09:43:07.407Z,99632.97
2023-01-08T09:45:41.052Z,99622.63
2023-01-08T09:48:16.751Z,99629.69
2023-01-08T09:50:46.016Z,99615.03
2023-01-08T09:53:17.032Z,99610.31
2023-01-08T09:55:49.000Z,99602.56
2023-01-08T09:58:29.463Z,99596.19
2023-01-08T10:00:59.677Z,99586.59
2023-01-08T10:03:33.466Z,99589.34
2023-01-08T10:06:02.130Z,99592.66
2023-01-08T10:08:30.716Z,99586.38
2023-01-08T10:10:59.129Z,99593.56
2023-01-08T10:13:29.197Z,99581.66
2023-01-08T10:15:57.656Z,99570.50
2023-01-08T10:18:29.300Z,99562.97
2023-01-08T10:20:59.010Z,99553.81
2023-01-08T10:23:27.425Z,99556.50
2023-01-08T10:25:58.877Z,99541.22
2023-01-08T10:28:30.092Z,99558.50
2023-01-08T10:31:05.247Z,99557.50
2023-01-08T10:33:41.090Z,99555.38
2023-01-08T10:36:12.227Z,99556.44
2023-01-08T10:38:44.641Z,99549.19
2023-01-08T10:41:15.199Z,99547.91
2023-01-08T10:43:54.096Z,99556.25
2023-01-08T10:46:26.195Z,99556.75
2023-01-08T10:48:58.397Z,99554.66
2023-01-08T10:51:29.047Z,99541.16
2023-01-08T10:54:01.381Z,99536.19
2023-01-08T10:56:32.426Z,99547.19
2023-01-08T10:59:02.311Z,99542.13
2023-01-08T11:01:32.975Z,99535.44
2023-01-08T11:04:03.519Z,99534.81
2023-01-08T11:06:34.348Z,99524.94
2023-01-08T11:09:05.681Z,99527.72
2023-01-08T11:11:35.942Z,99515.50
2023-01-08T11:14:08.244Z,99516.72
2023-01-08T11:16:39.611Z,99515.84
2023-01-08T11:19:17.957Z,99503.34
2023-01-08T11:21:57.172Z,99502.84
2023-01-08T11:24:29.441Z,99492.59
2023-01-08T11:27:04.678Z,99505.06
2023-01-08T11:29:40.608Z,99494.66
2023-01-08T11:32:31.975Z,99508.28
2023-01-08T11:35:04.961Z,99511.22
2023-01-08T11:37:37.287Z,99520.88
2023-01-08T11:40:15.035Z,99521.66
2023-01-08T11:43:06.594Z,99518.88
2023-01-08T11:45:52.694Z,99516.63
2023-01-08T11:48:37.020Z,99503.44
2023-01-08T11:51:25.836Z,99507.59
2023-01-08T11:54:04.882Z,99501.47
2023-01-08T11:56:49.803Z,99502.16
2023-01-08T11:59:27.420Z,99497.84
2023-01-08T12:02:09.320Z,99494.59
2023-01-08T12:04:59.203Z,99490.97
2023-01-08T12:07:34.634Z,99498.22
2023-01-08T12:10:12.814Z,99497.22
2023-01-08T12:12:51.661Z,99502.88
2023-01-08T12:15:26.733Z,99500.22
2023-01-08T12:18:19.483Z,99512.13
2023-01-08T12:20:53.021Z,99497.94
2023-01-08T12:23:38.453Z,99496.28
2023-01-08T12:26:19.368Z,99496.59
2023-01-08T12:29:05.042Z,99501.44
2023-01-08T12:32:03.079Z,99492.47
2023-01-08T12:34:43.976Z,99491.53
2023-01-08T12:37:18.863Z,99478.78
2023-01-08T12:39:56.901Z,99468.06
2023-01-08T12:42:29.653Z,99469.19
2023-01-08T12:45:02.238Z,99471.69
2023-01-08T12:47:35.417Z,99481.09
2023-01-08T12:50:22.237Z,99467.22
2023-01-08T12:52:56.861Z,99465.41
2023-01-08T12:55:37.268Z,99476.13
2023-01-08T12:58:17.775Z,99478.28
2023-01-08T13:00:55.801Z,99470.97
2023-01-08T13:03:28.259Z,99468.44
2023-01-08T13:06:10.332Z,99470.63
2023-01-08T13:08:41.723Z,99465.66
2023-01-08T13:11:11.093Z,99463.16
2023-01-08T13:13:45.348Z,99451.78
2023-01-08T13:16:21.956Z,99434.69
2023-01-08T13:18:55.885Z,99457.78
2023-01-08T13:21:37.373Z,99456.13
2023-01-08T13:24:22.303Z,99434.00
2023-01-08T13:26:51.051Z,99452.84
2023-01-08T13:29:41.502Z,99447.28
2023-01-08T13:32:36.505Z,99450.41
2023-01-08T13:35:22.559Z,99430.19
2023-01-08T13:37:53.961Z,99431.88
2023-01-08T13:40:39.493Z,99430.63
2023-01-08T13:43:14.670Z,99415.06
2023-01-08T13:45:44.340Z,99400.47
2023-01-08T13:48:24.242Z,99410.00
2023-01-08T13:50:53.314Z,99410.44
2023-01-08T13:53:24.483Z,99406.28
2023-01-08T13:55:58.755Z,99425.72
2023-01-08T13:58:30.913Z,99413.59
2023-01-08T14:01:02.640Z,99395.59
2023-01-08T14:03:35.341Z,99408.63
2023-01-08T14:06:08.628Z,99406.09
2023-01-08T14:08:38.573Z,99397.16
2023-01-08T14:11:07.218Z,99394.47
2023-01-08T14:13:35.982Z,99399.22
2023-01-08T14:16:07.275Z,99403.69
2023-01-08T14:18:35.960Z,99402.66
2023-01-08T14:21:05.122Z,99404.59
2023-01-08T14:23:39.319Z,99405.22
2023-01-08T14:26:10.702Z,99404.75
2023-01-08T14:28:39.171Z,99408.06
2023-01-08T14:31:07.703Z,99389.31
2023-01-08T14:33:38.324Z,99398.72
2023-01-08T14:36:09.726Z,99398.44
2023-01-08T14:38:40.614Z,99403.50
2023-01-08T14:41:11.420Z,99414.88
2023-01-08T14:43:44.639Z,99418.78
2023-01-08T14:46:21.034Z,99420.75
2023-01-08T14:48:50.649Z,99418.69
2023-01-08T14:51:24.502Z,99412.59
2023-01-08T14:53:57.515Z,99408.06
2023-01-08T14:56:29.501Z,99404.69
2023-01-08T14:58:58.793Z,99408.50
2023-01-08T15:01:30.321Z,99400.69
2023-01-08T15:04:07.851Z,99392.50
2023-01-08T15:06:36.504Z,99391.72
2023-01-08T15:09:22.147Z,99385.69
2023-01-08T15:11:54.888Z,99381.66
2023-01-08T15:14:25.908Z,99383.44
2023-01-08T15:16:56.485Z,99379.38
2023-01-08T15:19:27.038Z,99380.34
2023-01-08T15:21:58.633Z,99379.66
2023-01-08T15:24:31.370Z,99392.25
2023-01-08T15:27:10.070Z,99376.44
2023-01-08T15:29:49.342Z,99376.59
2023-01-08T15:32:23.840Z,99387.34
2023-01-08T15:34:52.399Z,99378.38
2023-01-08T15:37:20.994Z,99360.97
2023-01-08T15:39:51.170Z,99356.84
2023-01-08T15:42:39.028Z,99346.31
2023-01-08T15:45:13.896Z,99351.59
2023-01-08T15:47:42.874Z,99342.47
2023-01-08T15:50:12.601Z,99342.63
2023-01-08T15:52:44.365Z,99341.94
2023-01-08T15:55:19.307Z,99325.84
2023-01-08T15:57:48.379Z,99348.28
2023-01-08T16:00:18.934Z,99365.78
2023-01-08T16:02:51.869Z,99372.19
2023-01-08T16:05:23.983Z,99372.19
2023-01-08T16:07:52.462Z,99368.88
2023-01-08T16:10:26.156Z,99355.91
2023-01-08T16:12:54.957Z,99373.28
2023-01-08T16:15:24.485Z,99363.50
2023-01-08T16:17:53.463Z,99370.56
2023-01-08T16:20:23.399Z,99379.16
2023-01-08T16:22:52.183Z,99382.13
2023-01-08T16:25:21.131Z,99391.41
2023-01-08T16:27:51.312Z,99391.09
2023-01-08T16:30:20.648Z,99374.25
2023-01-08T16:32:52.979Z,99378.06
2023-01-08T16:35:22.828Z,99390.25
2023-01-08T16:37:51.598Z,99375.81
2023-01-08T16:40:20.820Z,99382.44
2023-01-08T16:42:51.080Z,99387.69
2023-01-08T16:45:20.824Z,99380.66
2023-01-08T16:47:49.641Z,99392.56
2023-01-08T16:50:18.925Z,99377.34
2023-01-08T16:52:47.447Z,99385.34
2023-01-08T16:55:15.893Z,99373.16
2023-01-08T16:57:45.304Z,99368.28
2023-01-08T17:00:16.916Z,99360.09
2023-01-08T17:02:45.364Z,99359.84
2023-01-08T17:05:14.268Z,99359.63
2023-01-08T17:07:45.606Z,99354.06
2023-01-08T17:10:14.446Z,99352.41
2023-01-08T17:12:43.089Z,99356.69
2023-01-08T17:15:12.814Z,99361.28
2023-01-08T17:17:43.716Z,99352.44
2023-01-08T17:20:14.485Z,99348.41
2023-01-08T17:22:43.034Z,99343.66
2023-01-08T17:25:11.668Z,99343.84
2023-01-08T17:27:40.334Z,99348.25
2023-01-08T17:30:11.488Z,99349.69
2023-01-08T17:32:40.440Z,99353.56
2023-01-08T17:35:11.452Z,99349.56
2023-01-08T17:37:42.590Z,99336.03
2023-01-08T17:40:12.505Z,99349.88
2023-01-08T17:42:41.045Z,99341.00
2023-01-08T17:45:10.654Z,99323.31
2023-01-08T17:47:39.540Z,99337.53
2023-01-08T17:50:10.966Z,99343.34
2023-01-08T17:52:42.316Z,99319.84
2023-01-08T17:55:18.324Z,99333.91
2023-01-08T17:57:48.198Z,99341.13
2023-01-08T18:00:19.541Z,99327.84
2023-01-08T18:02:48.597Z,99317.31
2023-01-08T18:05:19.056Z,99319.66
2023-01-08T18:07:47.495Z,99325.91
2023-01-08T18:10:15.972Z,99320.34
2023-01-08T18:12:44.658Z,99313.72
2023-01-08T18:15:16.432Z,99322.59
2023-01-08T18:17:45.592Z,99315.19
2023-01-08T18:20:14.493Z,99332.03
2023-01-08T18:22:47.396Z,99342.84
2023-01-08T18:25:16.076Z,99345.22
2023-01-08T18:27:44.539Z,99353.91
2023-01-08T18:30:14.222Z,99355.84
2023-01-08T18:32:42.768Z,99356.69
2023-01-08T18:35:13.192Z,99356.69
2023-01-08T18:37:41.511Z,99353.91
2023-01-08T18:40:13.189Z,99346.47
2023-01-08T18:42:41.852Z,99333.84
2023-01-08T18:45:13.941Z,99325.81
2023-01-08T18:47:42.796Z,99326.50
2023-01-08T18:50:13.770Z,99320.16
2023-01-08T18:52:43.121Z,99306.03
2023-01-08T18:55:13.782Z,99313.91
2023-01-08T18:57:44.897Z,99315.69
2023-01-08T19:00:14.362Z,99312.38
2023-01-08T19:02:43.757Z,99328.44
2023-01-08T19:05:12.659Z,99331.75
2023-01-08T19:07:42.942Z,99328.44
2023-01-08T19:10:14.398Z,99312.38
2023-01-08T19:12:43.212Z,99311.00
2023-01-08T19:15:12.441Z,99324.94
2023-01-08T19:17:41.003Z,99316.34
2023-01-08T19:20:11.011Z,99317.31
2023-01-08T19:22:39.637Z,99308.97
2023-01-08T19:25:09.108Z,99288.09
2023-01-08T19:27:39.260Z,99294.81
2023-01-08T19:30:09.250Z,99292.19
2023-01-08T19:32:39.134Z,99288.88
2023-01-08T19:35:08.481Z,99289.53
2023-01-08T19:37:37.275Z,99279.63
2023-01-08T19:40:06.537Z,99283.44
2023-01-08T19:42:58.704Z,99276.00
2023-01-08T19:45:29.460Z,99268.25
2023-01-08T19:47:58.202Z,99260.53
2023-01-08T19:50:27.059Z,99263.81
2023-01-08T19:52:57.124Z,99258.03
2023-01-08T19:55:25.656Z,99253.50
2023-01-08T19:57:54.956Z,99242.53
2023-01-08T20:00:23.656Z,99244.34
2023-01-08T20:02:53.889Z,99238.09
2023-01-08T20:05:22.457Z,99225.94
2023-01-08T20:07:53.950Z,99223.72
2023-01-08T20:10:23.278Z,99225.38
2023-01-08T20:12:52.216Z,99205.22
2023-01-08T20:15:22.253Z,99198.22
2023-01-08T20:17:50.836Z,99201.63
2023-01-08T20:20:21.250Z,99200.25
2023-01-08T20:22:49.773Z,99193.91
2023-01-08T20:25:18.672Z,99193.59
2023-01-08T20:27:47.155Z,99191.34
2023-01-08T20:30:16.139Z,99159.41
2023-01-08T20:32:44.677Z,99160.09
2023-01-08T20:35:13.491Z,99147.66
2023-01-08T20:37:44.749Z,99150.47
2023-01-08T20:40:15.480Z,99140.81
2023-01-08T20:42:46.491Z,99128.16
2023-01-08T20:45:15.331Z,99137.66
2023-01-08T20:47:43.855Z,99131.13
2023-01-08T20:50:19.980Z,99131.34
2023-01-08T20:52:52.434Z,99146.56
2023-01-08T20:55:26.730Z,99149.03
2023-01-08T20:58:00.979Z,99138.00
2023-01-08T21:00:35.706Z,99136.91
2023-01-08T21:03:14.224Z,99135.03
2023-01-08T21:05:49.129Z,99123.50
2023-01-08T21:08:18.974Z,99128.75
2023-01-08T21:10:47.397Z,99127.41
2023-01-08T21:13:16.076Z,99116.97
2023-01-08T21:15:50.175Z,99116.03
2023-01-08T21:18:25.862Z,99122.25
2023-01-08T21:21:05.184Z,99129.16
2023-01-08T21:23:42.946Z,99124.50
2023-01-08T21:26:17.893Z,99126.84
2023-01-08T21:28:54.703Z,99135.56
2023-01-08T21:31:31.865Z,99138.31
2023-01-08T21:34:11.258Z,99122.91
2023-01-08T21:36:48.915Z,99119.16
2023-01-08T21:39:32.884Z,99115.06
2023-01-08T21:42:18.569Z,99117.94
2023-01-08T21:45:04.123Z,99113.66
2023-01-08T21:47:32.473Z,99107.19
2023-01-08T21:50:00.861Z,99115.75
2023-01-08T21:52:46.785Z,99105.78
2023-01-08T21:55:17.733Z,99099.97
2023-01-08T21:57:46.521Z,99112.41
2023-01-08T22:00:18.559Z,99095.28
2023-01-08T22:02:46.983Z,99088.50
2023-01-08T22:05:15.896Z,99098.31
2023-01-08T22:07:44.342Z,99105.81
2023-01-08T22:10:13.468Z,99095.59
2023-01-08T22:12:44.094Z,99082.88
2023-01-08T22:15:13.659Z,99081.41
2023-01-08T22:17:42.350Z,99072.69
2023-01-08T22:20:12.271Z,99054.19
2023-01-08T22:22:41.515Z,99064.44
2023-01-08T22:25:10.579Z,99058.50
2023-01-08T22:27:38.954Z,99065.47
2023-01-08T22:30:10.661Z,99061.22
2023-01-08T22:32:39.139Z,99055.63
2023-01-08T22:35:08.039Z,99059.63
2023-01-08T22:37:36.958Z,99057.38
2023-01-08T22:40:06.366Z,99066.22
2023-01-08T22:42:34.877Z,99071.22
2023-01-08T22:45:03.599Z,99076.75
2023-01-08T22:47:33.456Z,99064.22
2023-01-08T22:50:02.160Z,99059.13
2023-01-08T22:52:30.538Z,99060.50
2023-01-08T22:54:59.659Z,99069.59
2023-01-08T22:57:28.070Z,99059.25
2023-01-08T22:59:56.532Z,99057.19
2023-01-08T23:02:25.541Z,99049.47
2023-01-08T23:04:55.755Z,99052.50
2023-01-08T23:07:24.304Z,99036.78
2023-01-08T23:09:52.744Z,99021.06
2023-01-08T23:12:22.264Z,99032.50
2023-01-08T23:14:50.754Z,99023.81
2023-01-08T23:17:19.229Z,99016.63
2023-01-08T23:19:47.768Z,99018.97
2023-01-08T23:22:17.650Z,99008.38
2023-01-08T23:24:46.469Z,99011.81
2023-01-08T23:27:14.864Z,98981.06
2023-01-08T23:29:43.284Z,98997.34
2023-01-08T23:32:11.791Z,98978.88
2023-01-08T23:34:40.224Z,98992.94
2023-01-08T23:37:08.703Z,98986.06
2023-01-08T23:39:38.776Z,98979.13
2023-01-08T23:42:07.425Z,98984.38
2023-01-08T23:44:36.103Z,98983.16
2023-01-08T23:47:06.185Z,98985.34
2023-01-08T23:49:35.348Z,98968.53
2023-01-08T23:52:03.764Z,98961.25
2023-01-08T23:54:33.323Z,98976.81
2023-01-08T23:57:03.318Z,98976.69
2023-01-08T23:59:31.744Z,98976.41
